sensor_id;sensor_type;location;lat;lon;timestamp;P1;durP1;ratioP1;P2;durP2;ratioP2
73672;SDS011;61972;19.480;-99.240;2022-07-25T00:01:29;2.43;;;1.50;;
73672;SDS011;61972;19.480;-99.240;2022-07-25T00:03:55;5.88;;;1.60;;
73672;SDS011;61972;19.480;-99.240;2022-07-25T00:06:21;3.88;;;1.55;;
73672;SDS011;61972;19.480;-99.240;2022-07-25T00:08:47;4.93;;;1.83;;
73672;SDS011;61972;19.480;-99.240;2022-07-25T00:11:13;70.85;;;28.25;;
73672;SDS011;61972;19.480;-99.240;2022-07-25T00:13:39;127.00;;;54.53;;
73672;SDS011;61972;19.480;-99.240;2022-07-25T00:16:06;143.82;;;64.88;;
73672;SDS011;61972;19.480;-99.240;2022-07-25T00:18:32;139.38;;;64.80;;
73672;SDS011;61972;19.480;-99.240;2022-07-25T00:20:58;137.13;;;61.20;;
73672;SDS011;61972;19.480;-99.240;2022-07-25T00:23:24;116.30;;;54.50;;
73672;SDS011;61972;19.480;-99.240;2022-07-25T00:25:51;90.77;;;43.37;;
73672;SDS011;61972;19.480;-99.240;2022-07-25T00:28:17;75.55;;;35.97;;
73672;SDS011;61972;19.480;-99.240;2022-07-25T00:30:43;60.33;;;28.58;;
73672;SDS011;61972;19.480;-99.240;2022-07-25T00:33:09;47.80;;;23.55;;
73672;SDS011;61972;19.480;-99.240;2022-07-25T00:35:36;38.55;;;18.00;;
73672;SDS011;61972;19.480;-99.240;2022-07-25T00:38:02;33.43;;;15.97;;
73672;SDS011;61972;19.480;-99.240;2022-07-25T00:40:28;26.75;;;12.52;;
73672;SDS011;61972;19.480;-99.240;2022-07-25T00:42:57;22.25;;;9.93;;
73672;SDS011;61972;19.480;-99.240;2022-07-25T00:45:23;18.73;;;8.63;;
73672;SDS011;61972;19.480;-99.240;2022-07-25T00:47:49;17.50;;;7.07;;
73672;SDS011;61972;19.480;-99.240;2022-07-25T00:50:16;15.07;;;6.97;;
73672;SDS011;61972;19.480;-99.240;2022-07-25T00:52:42;8.75;;;4.28;;
73672;SDS011;61972;19.480;-99.240;2022-07-25T00:55:14;11.82;;;5.30;;
73672;SDS011;61972;19.480;-99.240;2022-07-25T00:57:40;9.27;;;4.10;;
73672;SDS011;61972;19.480;-99.240;2022-07-25T01:00:08;10.32;;;4.22;;
73672;SDS011;61972;19.480;-99.240;2022-07-25T01:02:37;6.23;;;2.83;;
73672;SDS011;61972;19.480;-99.240;2022-07-25T01:05:04;5.88;;;2.40;;
73672;SDS011;61972;19.480;-99.240;2022-07-25T01:07:31;6.10;;;2.53;;
73672;SDS011;61972;19.480;-99.240;2022-07-25T01:10:00;9.13;;;2.85;;
73672;SDS011;61972;19.480;-99.240;2022-07-25T01:12:28;9.57;;;2.67;;
73672;SDS011;61972;19.480;-99.240;2022-07-25T01:14:55;6.07;;;2.57;;
73672;SDS011;61972;19.480;-99.240;2022-07-25T01:17:22;8.18;;;2.88;;
73672;SDS011;61972;19.480;-99.240;2022-07-25T01:19:48;8.63;;;3.13;;
73672;SDS011;61972;19.480;-99.240;2022-07-25T01:22:15;7.22;;;2.83;;
73672;SDS011;61972;19.480;-99.240;2022-07-25T01:24:42;7.57;;;3.13;;
73672;SDS011;61972;19.480;-99.240;2022-07-25T01:27:08;8.00;;;2.90;;
73672;SDS011;61972;19.480;-99.240;2022-07-25T01:29:34;5.93;;;2.42;;
73672;SDS011;61972;19.480;-99.240;2022-07-25T01:32:01;8.23;;;2.20;;
73672;SDS011;61972;19.480;-99.240;2022-07-25T01:34:27;3.38;;;1.55;;
73672;SDS011;61972;19.480;-99.240;2022-07-25T01:36:53;4.57;;;1.85;;
73672;SDS011;61972;19.480;-99.240;2022-07-25T01:39:19;4.60;;;1.80;;
73672;SDS011;61972;19.480;-99.240;2022-07-25T01:41:45;3.28;;;1.52;;
73672;SDS011;61972;19.480;-99.240;2022-07-25T01:44:12;5.13;;;1.42;;
73672;SDS011;61972;19.480;-99.240;2022-07-25T01:46:38;3.83;;;1.20;;
73672;SDS011;61972;19.480;-99.240;2022-07-25T01:49:04;3.00;;;1.60;;
73672;SDS011;61972;19.480;-99.240;2022-07-25T01:51:30;3.87;;;1.47;;
73672;SDS011;61972;19.480;-99.240;2022-07-25T01:53:56;2.33;;;1.30;;
73672;SDS011;61972;19.480;-99.240;2022-07-25T01:56:22;3.33;;;1.10;;
73672;SDS011;61972;19.480;-99.240;2022-07-25T01:58:48;2.65;;;1.15;;
73672;SDS011;61972;19.480;-99.240;2022-07-25T02:01:15;2.28;;;0.93;;
73672;SDS011;61972;19.480;-99.240;2022-07-25T02:03:41;3.13;;;1.10;;
73672;SDS011;61972;19.480;-99.240;2022-07-25T02:06:07;2.22;;;1.17;;
73672;SDS011;61972;19.480;-99.240;2022-07-25T02:08:33;2.53;;;1.15;;
73672;SDS011;61972;19.480;-99.240;2022-07-25T02:10:59;4.60;;;1.10;;
73672;SDS011;61972;19.480;-99.240;2022-07-25T02:13:26;3.45;;;1.25;;
73672;SDS011;61972;19.480;-99.240;2022-07-25T02:15:52;2.90;;;1.00;;
73672;SDS011;61972;19.480;-99.240;2022-07-25T02:18:18;3.85;;;1.27;;
73672;SDS011;61972;19.480;-99.240;2022-07-25T02:20:44;2.42;;;1.00;;
73672;SDS011;61972;19.480;-99.240;2022-07-25T02:23:11;2.10;;;1.20;;
73672;SDS011;61972;19.480;-99.240;2022-07-25T02:25:37;3.50;;;1.10;;
73672;SDS011;61972;19.480;-99.240;2022-07-25T02:28:03;3.73;;;1.40;;
73672;SDS011;61972;19.480;-99.240;2022-07-25T02:30:29;3.70;;;1.40;;
73672;SDS011;61972;19.480;-99.240;2022-07-25T02:32:55;2.50;;;1.30;;
73672;SDS011;61972;19.480;-99.240;2022-07-25T02:35:22;2.67;;;1.25;;
73672;SDS011;61972;19.480;-99.240;2022-07-25T02:37:48;2.92;;;1.40;;
73672;SDS011;61972;19.480;-99.240;2022-07-25T02:40:14;3.47;;;1.40;;
73672;SDS011;61972;19.480;-99.240;2022-07-25T02:42:40;2.55;;;1.20;;
73672;SDS011;61972;19.480;-99.240;2022-07-25T02:45:07;2.10;;;1.10;;
73672;SDS011;61972;19.480;-99.240;2022-07-25T02:47:33;2.83;;;1.33;;
73672;SDS011;61972;19.480;-99.240;2022-07-25T02:49:59;2.83;;;1.25;;
73672;SDS011;61972;19.480;-99.240;2022-07-25T02:52:25;3.43;;;1.27;;
73672;SDS011;61972;19.480;-99.240;2022-07-25T02:54:51;3.90;;;1.58;;
73672;SDS011;61972;19.480;-99.240;2022-07-25T02:57:17;2.50;;;1.30;;
73672;SDS011;61972;19.480;-99.240;2022-07-25T02:59:44;5.75;;;1.83;;
73672;SDS011;61972;19.480;-99.240;2022-07-25T03:02:10;3.72;;;1.50;;
73672;SDS011;61972;19.480;-99.240;2022-07-25T03:04:36;4.47;;;1.23;;
73672;SDS011;61972;19.480;-99.240;2022-07-25T03:07:02;3.45;;;1.45;;
73672;SDS011;61972;19.480;-99.240;2022-07-25T03:09:30;3.75;;;1.30;;
73672;SDS011;61972;19.480;-99.240;2022-07-25T03:11:56;5.43;;;1.17;;
73672;SDS011;61972;19.480;-99.240;2022-07-25T03:14:22;4.60;;;1.50;;
73672;SDS011;61972;19.480;-99.240;2022-07-25T03:16:48;2.97;;;1.20;;
73672;SDS011;61972;19.480;-99.240;2022-07-25T03:19:14;3.55;;;1.40;;
73672;SDS011;61972;19.480;-99.240;2022-07-25T03:21:40;3.67;;;1.50;;
73672;SDS011;61972;19.480;-99.240;2022-07-25T03:24:06;3.75;;;1.48;;
73672;SDS011;61972;19.480;-99.240;2022-07-25T03:26:32;3.08;;;1.33;;
73672;SDS011;61972;19.480;-99.240;2022-07-25T03:28:59;4.60;;;1.33;;
73672;SDS011;61972;19.480;-99.240;2022-07-25T03:31:25;4.18;;;1.60;;
73672;SDS011;61972;19.480;-99.240;2022-07-25T03:33:51;2.95;;;1.50;;
73672;SDS011;61972;19.480;-99.240;2022-07-25T03:36:17;3.42;;;1.40;;
73672;SDS011;61972;19.480;-99.240;2022-07-25T03:38:43;2.75;;;1.38;;
73672;SDS011;61972;19.480;-99.240;2022-07-25T03:41:10;3.87;;;1.30;;
73672;SDS011;61972;19.480;-99.240;2022-07-25T03:43:37;4.18;;;1.60;;
73672;SDS011;61972;19.480;-99.240;2022-07-25T03:46:03;3.78;;;1.40;;
73672;SDS011;61972;19.480;-99.240;2022-07-25T03:48:29;3.42;;;1.52;;
73672;SDS011;61972;19.480;-99.240;2022-07-25T03:50:55;3.42;;;1.30;;
73672;SDS011;61972;19.480;-99.240;2022-07-25T03:53:22;3.53;;;1.27;;
73672;SDS011;61972;19.480;-99.240;2022-07-25T03:55:48;4.50;;;1.65;;
73672;SDS011;61972;19.480;-99.240;2022-07-25T03:58:14;5.07;;;1.20;;
73672;SDS011;61972;19.480;-99.240;2022-07-25T04:00:40;4.22;;;1.20;;
73672;SDS011;61972;19.480;-99.240;2022-07-25T04:03:07;2.97;;;1.20;;
73672;SDS011;61972;19.480;-99.240;2022-07-25T04:05:33;4.13;;;1.00;;
73672;SDS011;61972;19.480;-99.240;2022-07-25T04:07:59;4.13;;;1.13;;
73672;SDS011;61972;19.480;-99.240;2022-07-25T04:10:25;3.38;;;1.23;;
73672;SDS011;61972;19.480;-99.240;2022-07-25T04:12:51;3.03;;;0.98;;
73672;SDS011;61972;19.480;-99.240;2022-07-25T04:15:17;4.05;;;1.30;;
73672;SDS011;61972;19.480;-99.240;2022-07-25T04:17:43;2.73;;;1.10;;
73672;SDS011;61972;19.480;-99.240;2022-07-25T04:20:10;3.72;;;1.10;;
73672;SDS011;61972;19.480;-99.240;2022-07-25T04:22:36;1.90;;;1.00;;
73672;SDS011;61972;19.480;-99.240;2022-07-25T04:25:03;2.67;;;1.15;;
73672;SDS011;61972;19.480;-99.240;2022-07-25T04:27:30;3.20;;;1.08;;
73672;SDS011;61972;19.480;-99.240;2022-07-25T04:29:56;3.47;;;1.13;;
73672;SDS011;61972;19.480;-99.240;2022-07-25T04:32:23;2.30;;;0.98;;
73672;SDS011;61972;19.480;-99.240;2022-07-25T04:34:49;2.90;;;0.98;;
73672;SDS011;61972;19.480;-99.240;2022-07-25T04:37:16;3.58;;;0.93;;
73672;SDS011;61972;19.480;-99.240;2022-07-25T04:39:42;4.10;;;1.10;;
73672;SDS011;61972;19.480;-99.240;2022-07-25T04:42:08;4.13;;;1.10;;
73672;SDS011;61972;19.480;-99.240;2022-07-25T04:44:35;4.18;;;1.40;;
73672;SDS011;61972;19.480;-99.240;2022-07-25T04:47:01;3.55;;;1.30;;
73672;SDS011;61972;19.480;-99.240;2022-07-25T04:49:27;3.20;;;1.27;;
73672;SDS011;61972;19.480;-99.240;2022-07-25T04:51:53;4.15;;;1.13;;
73672;SDS011;61972;19.480;-99.240;2022-07-25T04:54:19;3.80;;;1.20;;
73672;SDS011;61972;19.480;-99.240;2022-07-25T04:56:45;3.90;;;1.20;;
73672;SDS011;61972;19.480;-99.240;2022-07-25T04:59:12;3.58;;;1.02;;
73672;SDS011;61972;19.480;-99.240;2022-07-25T05:01:38;3.08;;;1.20;;
73672;SDS011;61972;19.480;-99.240;2022-07-25T05:04:04;3.47;;;1.45;;
73672;SDS011;61972;19.480;-99.240;2022-07-25T05:06:30;3.57;;;1.23;;
73672;SDS011;61972;19.480;-99.240;2022-07-25T05:08:57;3.97;;;1.13;;
73672;SDS011;61972;19.480;-99.240;2022-07-25T05:11:23;3.03;;;1.30;;
73672;SDS011;61972;19.480;-99.240;2022-07-25T05:13:49;2.88;;;1.10;;
73672;SDS011;61972;19.480;-99.240;2022-07-25T05:16:16;3.60;;;1.40;;
73672;SDS011;61972;19.480;-99.240;2022-07-25T05:18:42;3.37;;;1.33;;
73672;SDS011;61972;19.480;-99.240;2022-07-25T05:21:13;4.90;;;1.30;;
73672;SDS011;61972;19.480;-99.240;2022-07-25T05:23:42;2.72;;;1.13;;
73672;SDS011;61972;19.480;-99.240;2022-07-25T05:26:08;4.68;;;1.30;;
73672;SDS011;61972;19.480;-99.240;2022-07-25T05:28:34;3.42;;;1.40;;
73672;SDS011;61972;19.480;-99.240;2022-07-25T05:31:00;3.77;;;1.30;;
73672;SDS011;61972;19.480;-99.240;2022-07-25T05:33:26;2.95;;;1.38;;
73672;SDS011;61972;19.480;-99.240;2022-07-25T05:35:56;3.38;;;1.30;;
73672;SDS011;61972;19.480;-99.240;2022-07-25T05:38:22;3.92;;;1.10;;
73672;SDS011;61972;19.480;-99.240;2022-07-25T05:40:48;3.78;;;1.20;;
73672;SDS011;61972;19.480;-99.240;2022-07-25T05:43:16;5.40;;;1.30;;
73672;SDS011;61972;19.480;-99.240;2022-07-25T05:45:43;3.47;;;1.10;;
73672;SDS011;61972;19.480;-99.240;2022-07-25T05:48:11;25.25;;;2.90;;
73672;SDS011;61972;19.480;-99.240;2022-07-25T05:50:38;17.55;;;2.38;;
73672;SDS011;61972;19.480;-99.240;2022-07-25T05:53:05;18.33;;;2.95;;
73672;SDS011;61972;19.480;-99.240;2022-07-25T05:55:31;9.67;;;2.37;;
73672;SDS011;61972;19.480;-99.240;2022-07-25T05:57:58;13.23;;;2.83;;
73672;SDS011;61972;19.480;-99.240;2022-07-25T06:00:24;11.13;;;2.30;;
73672;SDS011;61972;19.480;-99.240;2022-07-25T06:02:50;7.35;;;2.00;;
73672;SDS011;61972;19.480;-99.240;2022-07-25T06:05:16;7.97;;;2.10;;
73672;SDS011;61972;19.480;-99.240;2022-07-25T06:07:42;8.27;;;1.90;;
73672;SDS011;61972;19.480;-99.240;2022-07-25T06:10:09;5.45;;;1.63;;
73672;SDS011;61972;19.480;-99.240;2022-07-25T06:12:35;4.85;;;1.65;;
73672;SDS011;61972;19.480;-99.240;2022-07-25T06:15:01;6.00;;;1.40;;
73672;SDS011;61972;19.480;-99.240;2022-07-25T06:17:26;7.23;;;1.50;;
73672;SDS011;61972;19.480;-99.240;2022-07-25T06:19:52;4.40;;;1.40;;
73672;SDS011;61972;19.480;-99.240;2022-07-25T06:22:18;3.63;;;1.30;;
73672;SDS011;61972;19.480;-99.240;2022-07-25T06:24:45;3.25;;;1.30;;
73672;SDS011;61972;19.480;-99.240;2022-07-25T06:27:11;3.20;;;1.07;;
73672;SDS011;61972;19.480;-99.240;2022-07-25T06:29:37;4.95;;;1.30;;
73672;SDS011;61972;19.480;-99.240;2022-07-25T06:32:03;4.20;;;1.15;;
73672;SDS011;61972;19.480;-99.240;2022-07-25T06:34:29;3.13;;;1.40;;
73672;SDS011;61972;19.480;-99.240;2022-07-25T06:36:56;1.95;;;1.10;;
73672;SDS011;61972;19.480;-99.240;2022-07-25T06:39:23;2.43;;;1.00;;
73672;SDS011;61972;19.480;-99.240;2022-07-25T06:41:50;8.27;;;1.20;;
73672;SDS011;61972;19.480;-99.240;2022-07-25T06:44:16;2.25;;;1.20;;
73672;SDS011;61972;19.480;-99.240;2022-07-25T06:46:42;4.10;;;1.00;;
73672;SDS011;61972;19.480;-99.240;2022-07-25T06:49:08;3.25;;;1.23;;
73672;SDS011;61972;19.480;-99.240;2022-07-25T06:51:34;2.40;;;0.90;;
73672;SDS011;61972;19.480;-99.240;2022-07-25T06:54:01;2.25;;;1.00;;
73672;SDS011;61972;19.480;-99.240;2022-07-25T06:56:27;4.80;;;1.30;;
73672;SDS011;61972;19.480;-99.240;2022-07-25T06:58:56;2.33;;;1.02;;
73672;SDS011;61972;19.480;-99.240;2022-07-25T07:01:22;3.20;;;1.27;;
73672;SDS011;61972;19.480;-99.240;2022-07-25T07:03:49;2.50;;;0.97;;
73672;SDS011;61972;19.480;-99.240;2022-07-25T07:06:15;3.70;;;1.10;;
73672;SDS011;61972;19.480;-99.240;2022-07-25T07:08:41;2.75;;;1.23;;
73672;SDS011;61972;19.480;-99.240;2022-07-25T07:11:07;3.08;;;1.20;;
73672;SDS011;61972;19.480;-99.240;2022-07-25T07:13:33;2.15;;;0.90;;
73672;SDS011;61972;19.480;-99.240;2022-07-25T07:15:59;2.97;;;1.10;;
73672;SDS011;61972;19.480;-99.240;2022-07-25T07:18:26;2.67;;;1.10;;
73672;SDS011;61972;19.480;-99.240;2022-07-25T07:20:52;3.15;;;1.40;;
73672;SDS011;61972;19.480;-99.240;2022-07-25T07:23:18;3.28;;;1.20;;
73672;SDS011;61972;19.480;-99.240;2022-07-25T07:25:45;2.45;;;1.10;;
73672;SDS011;61972;19.480;-99.240;2022-07-25T07:28:11;2.73;;;1.10;;
73672;SDS011;61972;19.480;-99.240;2022-07-25T07:30:37;3.05;;;1.13;;
73672;SDS011;61972;19.480;-99.240;2022-07-25T07:33:03;5.20;;;1.08;;
73672;SDS011;61972;19.480;-99.240;2022-07-25T07:35:29;2.97;;;1.00;;
73672;SDS011;61972;19.480;-99.240;2022-07-25T07:37:55;4.00;;;1.00;;
73672;SDS011;61972;19.480;-99.240;2022-07-25T07:40:22;2.63;;;1.17;;
73672;SDS011;61972;19.480;-99.240;2022-07-25T07:42:49;2.50;;;1.33;;
73672;SDS011;61972;19.480;-99.240;2022-07-25T07:45:17;2.80;;;1.15;;
73672;SDS011;61972;19.480;-99.240;2022-07-25T07:47:45;4.38;;;1.10;;
73672;SDS011;61972;19.480;-99.240;2022-07-25T07:50:14;2.97;;;1.35;;
73672;SDS011;61972;19.480;-99.240;2022-07-25T07:52:42;2.10;;;1.00;;
73672;SDS011;61972;19.480;-99.240;2022-07-25T07:55:09;5.07;;;1.05;;
73672;SDS011;61972;19.480;-99.240;2022-07-25T07:58:12;2.70;;;1.25;;
73672;SDS011;61972;19.480;-99.240;2022-07-25T08:00:43;4.10;;;1.20;;
73672;SDS011;61972;19.480;-99.240;2022-07-25T08:03:11;2.70;;;1.30;;
73672;SDS011;61972;19.480;-99.240;2022-07-25T08:05:42;4.40;;;1.47;;
73672;SDS011;61972;19.480;-99.240;2022-07-25T08:08:13;3.58;;;1.10;;
73672;SDS011;61972;19.480;-99.240;2022-07-25T08:10:42;3.60;;;1.20;;
73672;SDS011;61972;19.480;-99.240;2022-07-25T08:13:13;2.25;;;1.13;;
73672;SDS011;61972;19.480;-99.240;2022-07-25T08:15:42;3.47;;;1.40;;
73672;SDS011;61972;19.480;-99.240;2022-07-25T08:18:11;4.27;;;1.23;;
73672;SDS011;61972;19.480;-99.240;2022-07-25T08:20:37;4.20;;;1.23;;
73672;SDS011;61972;19.480;-99.240;2022-07-25T08:23:07;2.60;;;1.08;;
73672;SDS011;61972;19.480;-99.240;2022-07-25T08:25:40;3.28;;;1.40;;
73672;SDS011;61972;19.480;-99.240;2022-07-25T08:28:07;3.65;;;1.30;;
73672;SDS011;61972;19.480;-99.240;2022-07-25T08:30:45;2.03;;;0.93;;
73672;SDS011;61972;19.480;-99.240;2022-07-25T08:33:12;3.33;;;1.30;;
73672;SDS011;61972;19.480;-99.240;2022-07-25T08:35:44;4.28;;;1.42;;
73672;SDS011;61972;19.480;-99.240;2022-07-25T08:38:16;2.22;;;1.27;;
73672;SDS011;61972;19.480;-99.240;2022-07-25T08:40:42;4.10;;;1.20;;
73672;SDS011;61972;19.480;-99.240;2022-07-25T08:43:12;3.43;;;1.20;;
73672;SDS011;61972;19.480;-99.240;2022-07-25T08:45:58;3.28;;;1.20;;
73672;SDS011;61972;19.480;-99.240;2022-07-25T08:48:25;2.75;;;1.20;;
73672;SDS011;61972;19.480;-99.240;2022-07-25T08:50:52;2.47;;;1.05;;
73672;SDS011;61972;19.480;-99.240;2022-07-25T08:53:21;2.55;;;1.10;;
73672;SDS011;61972;19.480;-99.240;2022-07-25T08:55:47;2.83;;;1.07;;
73672;SDS011;61972;19.480;-99.240;2022-07-25T08:58:15;2.20;;;1.00;;
73672;SDS011;61972;19.480;-99.240;2022-07-25T09:00:42;4.15;;;1.20;;
73672;SDS011;61972;19.480;-99.240;2022-07-25T09:03:09;2.80;;;1.02;;
73672;SDS011;61972;19.480;-99.240;2022-07-25T09:05:35;4.25;;;1.00;;
73672;SDS011;61972;19.480;-99.240;2022-07-25T09:08:09;3.00;;;1.20;;
73672;SDS011;61972;19.480;-99.240;2022-07-25T09:10:47;2.70;;;1.17;;
73672;SDS011;61972;19.480;-99.240;2022-07-25T09:13:16;3.05;;;1.30;;
73672;SDS011;61972;19.480;-99.240;2022-07-25T09:15:44;2.22;;;1.00;;
73672;SDS011;61972;19.480;-99.240;2022-07-25T09:18:11;2.67;;;1.30;;
73672;SDS011;61972;19.480;-99.240;2022-07-25T09:20:40;2.03;;;1.10;;
73672;SDS011;61972;19.480;-99.240;2022-07-25T09:23:09;2.42;;;1.30;;
73672;SDS011;61972;19.480;-99.240;2022-07-25T09:25:37;3.17;;;1.20;;
73672;SDS011;61972;19.480;-99.240;2022-07-25T09:28:17;3.17;;;1.33;;
73672;SDS011;61972;19.480;-99.240;2022-07-25T09:30:52;2.10;;;1.27;;
73672;SDS011;61972;19.480;-99.240;2022-07-25T09:33:20;3.20;;;1.30;;
73672;SDS011;61972;19.480;-99.240;2022-07-25T09:35:47;2.00;;;1.17;;
73672;SDS011;61972;19.480;-99.240;2022-07-25T09:38:14;2.20;;;1.42;;
73672;SDS011;61972;19.480;-99.240;2022-07-25T09:40:51;2.72;;;1.40;;
73672;SDS011;61972;19.480;-99.240;2022-07-25T09:43:19;3.20;;;1.38;;
73672;SDS011;61972;19.480;-99.240;2022-07-25T09:45:49;3.07;;;1.40;;
73672;SDS011;61972;19.480;-99.240;2022-07-25T09:48:17;2.03;;;1.25;;
73672;SDS011;61972;19.480;-99.240;2022-07-25T09:50:46;3.38;;;1.50;;
73672;SDS011;61972;19.480;-99.240;2022-07-25T09:53:12;3.45;;;1.35;;
73672;SDS011;61972;19.480;-99.240;2022-07-25T09:55:39;2.40;;;1.40;;
73672;SDS011;61972;19.480;-99.240;2022-07-25T09:58:05;2.80;;;1.40;;
73672;SDS011;61972;19.480;-99.240;2022-07-25T10:00:39;2.75;;;1.30;;
73672;SDS011;61972;19.480;-99.240;2022-07-25T10:16:43;3.17;;;1.50;;
73672;SDS011;61972;19.480;-99.240;2022-07-25T10:19:13;2.03;;;1.40;;
73672;SDS011;61972;19.480;-99.240;2022-07-25T10:21:39;2.40;;;1.40;;
73672;SDS011;61972;19.480;-99.240;2022-07-25T10:24:07;2.60;;;1.48;;
73672;SDS011;61972;19.480;-99.240;2022-07-25T10:26:38;2.87;;;1.37;;
73672;SDS011;61972;19.480;-99.240;2022-07-25T10:29:15;2.22;;;1.30;;
73672;SDS011;61972;19.480;-99.240;2022-07-25T10:31:42;2.53;;;1.52;;
73672;SDS011;61972;19.480;-99.240;2022-07-25T10:34:10;2.40;;;1.60;;
73672;SDS011;61972;19.480;-99.240;2022-07-25T10:36:46;2.50;;;1.55;;
73672;SDS011;61972;19.480;-99.240;2022-07-25T10:39:17;2.83;;;1.40;;
73672;SDS011;61972;19.480;-99.240;2022-07-25T10:41:50;2.58;;;1.58;;
73672;SDS011;61972;19.480;-99.240;2022-07-25T10:44:17;2.33;;;1.40;;
73672;SDS011;61972;19.480;-99.240;2022-07-25T10:46:44;2.60;;;1.48;;
73672;SDS011;61972;19.480;-99.240;2022-07-25T10:49:18;2.85;;;1.73;;
73672;SDS011;61972;19.480;-99.240;2022-07-25T10:51:56;2.43;;;1.40;;
73672;SDS011;61972;19.480;-99.240;2022-07-25T10:54:23;2.83;;;1.70;;
73672;SDS011;61972;19.480;-99.240;2022-07-25T10:56:59;2.47;;;1.30;;
73672;SDS011;61972;19.480;-99.240;2022-07-25T10:59:35;2.58;;;1.45;;
73672;SDS011;61972;19.480;-99.240;2022-07-25T11:02:03;5.05;;;1.40;;
73672;SDS011;61972;19.480;-99.240;2022-07-25T11:04:32;2.43;;;1.43;;
73672;SDS011;61972;19.480;-99.240;2022-07-25T11:07:08;2.47;;;1.30;;
73672;SDS011;61972;19.480;-99.240;2022-07-25T11:09:36;2.53;;;1.50;;
73672;SDS011;61972;19.480;-99.240;2022-07-25T11:12:03;3.95;;;1.60;;
73672;SDS011;61972;19.480;-99.240;2022-07-25T11:17:08;2.10;;;1.20;;
73672;SDS011;61972;19.480;-99.240;2022-07-25T11:19:34;4.72;;;1.13;;
73672;SDS011;61972;19.480;-99.240;2022-07-25T11:22:00;2.63;;;1.30;;
73672;SDS011;61972;19.480;-99.240;2022-07-25T11:24:37;4.40;;;1.23;;
73672;SDS011;61972;19.480;-99.240;2022-07-25T11:27:07;5.30;;;1.70;;
73672;SDS011;61972;19.480;-99.240;2022-07-25T11:29:35;3.77;;;1.30;;
73672;SDS011;61972;19.480;-99.240;2022-07-25T11:32:05;3.00;;;1.40;;
73672;SDS011;61972;19.480;-99.240;2022-07-25T11:34:37;2.97;;;1.55;;
73672;SDS011;61972;19.480;-99.240;2022-07-25T11:37:13;4.93;;;1.40;;
73672;SDS011;61972;19.480;-99.240;2022-07-25T11:39:41;3.58;;;1.40;;
73672;SDS011;61972;19.480;-99.240;2022-07-25T11:42:13;1.80;;;1.17;;
73672;SDS011;61972;19.480;-99.240;2022-07-25T11:44:49;2.65;;;1.48;;
73672;SDS011;61972;19.480;-99.240;2022-07-25T11:49:56;2.28;;;1.00;;
73672;SDS011;61972;19.480;-99.240;2022-07-25T11:52:27;4.97;;;1.40;;
73672;SDS011;61972;19.480;-99.240;2022-07-25T11:54:56;2.27;;;1.37;;
73672;SDS011;61972;19.480;-99.240;2022-07-25T11:57:28;2.35;;;1.20;;
73672;SDS011;61972;19.480;-99.240;2022-07-25T11:59:56;2.85;;;1.50;;
73672;SDS011;61972;19.480;-99.240;2022-07-25T12:02:28;2.25;;;1.30;;
73672;SDS011;61972;19.480;-99.240;2022-07-25T12:04:57;1.70;;;1.10;;
73672;SDS011;61972;19.480;-99.240;2022-07-25T12:10:00;2.30;;;1.00;;
73672;SDS011;61972;19.480;-99.240;2022-07-25T12:12:26;2.95;;;1.40;;
73672;SDS011;61972;19.480;-99.240;2022-07-25T12:14:53;3.60;;;1.60;;
73672;SDS011;61972;19.480;-99.240;2022-07-25T12:17:19;3.00;;;1.60;;
73672;SDS011;61972;19.480;-99.240;2022-07-25T12:19:45;3.23;;;1.60;;
73672;SDS011;61972;19.480;-99.240;2022-07-25T12:22:11;2.67;;;1.55;;
73672;SDS011;61972;19.480;-99.240;2022-07-25T12:24:38;3.10;;;1.38;;
73672;SDS011;61972;19.480;-99.240;2022-07-25T12:27:04;3.20;;;1.52;;
73672;SDS011;61972;19.480;-99.240;2022-07-25T12:29:30;4.35;;;1.60;;
73672;SDS011;61972;19.480;-99.240;2022-07-25T12:31:56;3.40;;;1.43;;
73672;SDS011;61972;19.480;-99.240;2022-07-25T12:34:22;3.03;;;1.40;;
73672;SDS011;61972;19.480;-99.240;2022-07-25T12:36:48;2.30;;;1.20;;
73672;SDS011;61972;19.480;-99.240;2022-07-25T12:39:14;4.50;;;1.55;;
73672;SDS011;61972;19.480;-99.240;2022-07-25T12:41:41;2.60;;;1.38;;
73672;SDS011;61972;19.480;-99.240;2022-07-25T12:44:07;2.70;;;1.40;;
73672;SDS011;61972;19.480;-99.240;2022-07-25T12:46:33;2.53;;;1.40;;
73672;SDS011;61972;19.480;-99.240;2022-07-25T12:49:01;3.17;;;1.50;;
73672;SDS011;61972;19.480;-99.240;2022-07-25T12:51:27;3.60;;;1.50;;
73672;SDS011;61972;19.480;-99.240;2022-07-25T12:53:53;2.70;;;1.60;;
73672;SDS011;61972;19.480;-99.240;2022-07-25T12:56:19;3.70;;;1.67;;
73672;SDS011;61972;19.480;-99.240;2022-07-25T12:58:45;3.10;;;1.52;;
73672;SDS011;61972;19.480;-99.240;2022-07-25T13:01:11;3.42;;;1.70;;
73672;SDS011;61972;19.480;-99.240;2022-07-25T13:03:38;2.58;;;1.50;;
73672;SDS011;61972;19.480;-99.240;2022-07-25T13:06:04;3.25;;;1.48;;
73672;SDS011;61972;19.480;-99.240;2022-07-25T13:08:30;3.57;;;1.60;;
73672;SDS011;61972;19.480;-99.240;2022-07-25T13:10:57;3.00;;;1.70;;
73672;SDS011;61972;19.480;-99.240;2022-07-25T13:13:23;2.85;;;1.40;;
73672;SDS011;61972;19.480;-99.240;2022-07-25T13:15:49;3.35;;;1.48;;
73672;SDS011;61972;19.480;-99.240;2022-07-25T13:18:15;3.38;;;1.63;;
73672;SDS011;61972;19.480;-99.240;2022-07-25T13:20:41;2.63;;;1.20;;
73672;SDS011;61972;19.480;-99.240;2022-07-25T13:23:07;3.63;;;1.63;;
73672;SDS011;61972;19.480;-99.240;2022-07-25T13:25:33;2.58;;;1.55;;
73672;SDS011;61972;19.480;-99.240;2022-07-25T13:28:01;3.20;;;1.60;;
73672;SDS011;61972;19.480;-99.240;2022-07-25T13:30:28;2.58;;;1.58;;
73672;SDS011;61972;19.480;-99.240;2022-07-25T13:32:55;2.30;;;1.50;;
73672;SDS011;61972;19.480;-99.240;2022-07-25T13:35:21;2.95;;;1.30;;
73672;SDS011;61972;19.480;-99.240;2022-07-25T13:37:47;2.97;;;1.60;;
73672;SDS011;61972;19.480;-99.240;2022-07-25T13:40:13;2.53;;;1.40;;
73672;SDS011;61972;19.480;-99.240;2022-07-25T13:42:39;3.63;;;1.67;;
73672;SDS011;61972;19.480;-99.240;2022-07-25T13:45:05;3.07;;;1.60;;
73672;SDS011;61972;19.480;-99.240;2022-07-25T13:47:32;2.85;;;1.60;;
73672;SDS011;61972;19.480;-99.240;2022-07-25T13:49:59;3.70;;;1.73;;
73672;SDS011;61972;19.480;-99.240;2022-07-25T13:52:26;2.53;;;1.50;;
73672;SDS011;61972;19.480;-99.240;2022-07-25T13:54:52;3.15;;;1.70;;
73672;SDS011;61972;19.480;-99.240;2022-07-25T13:57:18;2.53;;;1.60;;
73672;SDS011;61972;19.480;-99.240;2022-07-25T13:59:44;2.92;;;1.50;;
73672;SDS011;61972;19.480;-99.240;2022-07-25T14:02:10;2.58;;;1.77;;
73672;SDS011;61972;19.480;-99.240;2022-07-25T14:04:36;3.67;;;1.80;;
73672;SDS011;61972;19.480;-99.240;2022-07-25T14:07:02;3.75;;;1.80;;
73672;SDS011;61972;19.480;-99.240;2022-07-25T14:09:28;3.20;;;1.80;;
73672;SDS011;61972;19.480;-99.240;2022-07-25T14:11:54;4.25;;;1.60;;
73672;SDS011;61972;19.480;-99.240;2022-07-25T14:14:20;3.55;;;1.83;;
73672;SDS011;61972;19.480;-99.240;2022-07-25T14:16:47;4.43;;;2.00;;
73672;SDS011;61972;19.480;-99.240;2022-07-25T14:19:13;2.53;;;1.63;;
73672;SDS011;61972;19.480;-99.240;2022-07-25T14:21:40;3.27;;;1.73;;
73672;SDS011;61972;19.480;-99.240;2022-07-25T14:24:06;3.08;;;1.73;;
73672;SDS011;61972;19.480;-99.240;2022-07-25T14:26:33;3.70;;;1.92;;
73672;SDS011;61972;19.480;-99.240;2022-07-25T14:29:00;3.38;;;1.83;;
73672;SDS011;61972;19.480;-99.240;2022-07-25T14:31:26;3.38;;;1.75;;
73672;SDS011;61972;19.480;-99.240;2022-07-25T14:33:52;3.47;;;1.90;;
73672;SDS011;61972;19.480;-99.240;2022-07-25T14:36:18;2.78;;;1.73;;
73672;SDS011;61972;19.480;-99.240;2022-07-25T14:38:45;3.17;;;2.13;;
73672;SDS011;61972;19.480;-99.240;2022-07-25T14:41:12;2.80;;;1.88;;
73672;SDS011;61972;19.480;-99.240;2022-07-25T14:43:39;3.38;;;2.08;;